Hartford, Connecticut
Traffic Map
Current Weather Conditions
Hartford, Connecticut
Few Clouds
Few Clouds
50°
Feels Like: 50°
Wind Chill: 50° Ceiling: Unl
Heat Index: 50° Visibility: 10mi
Dew Point: 31° Wind: 6mph
Humidity: 48% Direction: 310° (NW)
Pressure: 29.93in Gusts: 0mph
Raw Report DataKHFD 200153Z 31005KT 10SM FEW070 10/M01 A2993 RMK AO2 SLP134 T01001006
Traffic Incident Summary
Active as of:
Severity:
Category:
InformationThere was an issue retrieving the traffic information for this location. Please try a different location or try again shortly.
Advertisements
Track Severe Weather on mobile